Time,TemperatureF,DewpointF,PressureIn,WindDirection,WindDirectionDegrees,WindSpeedMPH,WindSpeedGustMPH,Humidity,HourlyPrecipIn,Conditions,Clouds,dailyrainin,SoftwareType,DateUTC
2013-03-30 00:00:00,30.6,23.6,30.32,WNW,298,0.0,2.0,75,0.00,,---,0.00,VWS V14.00,2013-03-30 04:00:00,
2013-03-30 00:07:00,30.2,23.6,30.32,WNW,298,0.0,0.0,76,0.00,,---,0.00,VWS V14.00,2013-03-30 04:07:00,
2013-03-30 00:15:00,29.9,23.6,30.32,WNW,298,0.0,0.0,77,0.00,,---,0.00,VWS V14.00,2013-03-30 04:15:00,
2013-03-30 00:23:00,29.7,23.4,30.32,WNW,298,0.0,0.0,77,0.00,,---,0.00,VWS V14.00,2013-03-30 04:23:00,
2013-03-30 00:30:00,29.5,23.5,30.32,WNW,298,0.0,0.0,78,0.00,,---,0.00,VWS V14.00,2013-03-30 04:30:00,
2013-03-30 00:39:00,29.4,23.1,30.32,WNW,298,0.0,0.0,77,0.00,,---,0.00,VWS V14.00,2013-03-30 04:39:00,
2013-03-30 00:47:00,29.2,22.9,30.32,WNW,298,0.0,0.0,77,0.00,,---,0.00,VWS V14.00,2013-03-30 04:47:00,
2013-03-30 00:55:00,29.2,23.2,30.32,WNW,298,0.0,0.0,78,0.00,,---,0.00,VWS V14.00,2013-03-30 04:55:00,
2013-03-30 01:00:00,29.2,23.2,30.32,WNW,298,0.0,0.0,78,0.00,,---,0.00,VWS V14.00,2013-03-30 05:00:00,
2013-03-30 01:03:00,29.2,23.2,30.32,WNW,298,0.0,0.0,78,0.00,,---,0.00,VWS V14.00,2013-03-30 05:03:00,
2013-03-30 01:11:00,29.0,23.0,30.31,WNW,298,0.0,1.0,78,0.00,,---,0.00,VWS V14.00,2013-03-30 05:11:00,
2013-03-30 01:19:00,28.8,23.1,30.32,WNW,298,0.0,1.0,79,0.00,,---,0.00,VWS V14.00,2013-03-30 05:19:00,
2013-03-30 01:27:00,28.6,22.9,30.32,WNW,298,0.0,1.0,79,0.00,,---,0.00,VWS V14.00,2013-03-30 05:27:00,
2013-03-30 01:35:00,28.4,22.7,30.31,WNW,298,0.0,0.0,79,0.00,,---,0.00,VWS V14.00,2013-03-30 05:35:00,
2013-03-30 01:43:00,28.3,22.9,30.32,WNW,298,0.0,0.0,80,0.00,,---,0.00,VWS V14.00,2013-03-30 05:43:00,
2013-03-30 01:51:00,28.1,22.7,30.32,WNW,298,0.0,0.0,80,0.00,,---,0.00,VWS V14.00,2013-03-30 05:51:00,
2013-03-30 01:59:00,27.9,22.5,30.32,WNW,298,0.0,0.0,80,0.00,,---,0.00,VWS V14.00,2013-03-30 05:59:00,
2013-03-30 02:07:00,27.7,22.6,30.32,WNW,298,0.0,0.0,81,0.00,,---,0.00,VWS V14.00,2013-03-30 06:07:00,
2013-03-30 02:15:00,27.6,22.5,30.32,WNW,298,0.0,0.0,81,0.00,,---,0.00,VWS V14.00,2013-03-30 06:15:00,
2013-03-30 02:23:00,27.6,22.5,30.32,WNW,298,0.0,0.0,81,0.00,,---,0.00,VWS V14.00,2013-03-30 06:23:00,
2013-03-30 02:30:00,27.5,22.5,30.32,WNW,298,0.0,0.0,81,0.00,,---,0.00,VWS V14.00,2013-03-30 06:30:00,
2013-03-30 02:39:00,27.6,22.5,30.32,WNW,298,0.0,0.0,81,0.00,,---,0.00,VWS V14.00,2013-03-30 06:39:00,
2013-03-30 02:47:00,27.4,22.0,30.32,WNW,298,0.0,0.0,80,0.00,,---,0.00,VWS V14.00,2013-03-30 06:47:00,
2013-03-30 02:55:00,27.1,21.8,30.31,WNW,298,0.0,0.0,80,0.00,,---,0.00,VWS V14.00,2013-03-30 06:55:00,
2013-03-30 03:03:00,27.2,22.1,30.31,WNW,298,0.0,0.0,81,0.00,,---,0.00,VWS V14.00,2013-03-30 07:03:00,
2013-03-30 03:11:00,27.2,22.1,30.32,WNW,298,0.0,0.0,81,0.00,,---,0.00,VWS V14.00,2013-03-30 07:11:00,
2013-03-30 03:19:00,27.0,22.0,30.31,WNW,298,0.0,0.0,81,0.00,,---,0.00,VWS V14.00,2013-03-30 07:19:00,
2013-03-30 03:27:00,26.9,22.1,30.32,WNW,298,0.0,0.0,82,0.00,,---,0.00,VWS V14.00,2013-03-30 07:27:00,
2013-03-30 03:35:00,26.7,22.0,30.32,WNW,298,0.0,0.0,82,0.00,,---,0.00,VWS V14.00,2013-03-30 07:35:00,
2013-03-30 03:43:00,26.5,21.8,30.31,WNW,298,0.0,0.0,82,0.00,,---,0.00,VWS V14.00,2013-03-30 07:43:00,
2013-03-30 03:51:00,26.3,21.6,30.31,WNW,298,0.0,0.0,82,0.00,,---,0.00,VWS V14.00,2013-03-30 07:51:00,
2013-03-30 03:59:00,26.2,21.8,30.31,WNW,298,0.0,1.0,83,0.00,,---,0.00,VWS V14.00,2013-03-30 07:59:00,
2013-03-30 04:07:00,26.1,21.6,30.31,WNW,298,0.0,0.0,83,0.00,,---,0.00,VWS V14.00,2013-03-30 08:07:00,
2013-03-30 04:15:00,26.1,21.6,30.31,WNW,298,0.0,0.0,83,0.00,,---,0.00,VWS V14.00,2013-03-30 08:15:00,
2013-03-30 04:23:00,26.2,21.8,30.32,WNW,298,0.0,1.0,83,0.00,,---,0.00,VWS V14.00,2013-03-30 08:23:00,
2013-03-30 04:30:00,26.1,21.6,30.32,WNW,298,0.0,1.0,83,0.00,,---,0.00,VWS V14.00,2013-03-30 08:30:00,
2013-03-30 04:39:00,25.9,21.5,30.31,WNW,298,0.0,0.0,83,0.00,,---,0.00,VWS V14.00,2013-03-30 08:39:00,
2013-03-30 04:47:00,26.0,21.6,30.31,WNW,298,0.0,0.0,83,0.00,,---,0.00,VWS V14.00,2013-03-30 08:47:00,
2013-03-30 04:55:00,25.8,21.4,30.31,WNW,298,0.0,0.0,83,0.00,,---,0.00,VWS V14.00,2013-03-30 08:55:00,
2013-03-30 05:03:00,25.7,21.5,30.31,WNW,298,0.0,0.0,84,0.00,,---,0.00,VWS V14.00,2013-03-30 09:03:00,
2013-03-30 05:12:00,25.4,21.2,30.31,WNW,298,0.0,0.0,84,0.00,,---,0.00,VWS V14.00,2013-03-30 09:12:00,
2013-03-30 05:20:00,25.1,21.0,30.31,WNW,298,0.0,0.0,84,0.00,,---,0.00,VWS V14.00,2013-03-30 09:20:00,
2013-03-30 05:28:00,24.9,21.0,30.32,WNW,298,0.0,0.0,85,0.00,,---,0.00,VWS V14.00,2013-03-30 09:28:00,
2013-03-30 05:36:00,24.7,20.8,30.32,WNW,298,0.0,0.0,85,0.00,,---,0.00,VWS V14.00,2013-03-30 09:36:00,
2013-03-30 05:44:00,24.6,20.7,30.32,WNW,298,0.0,0.0,85,0.00,,---,0.00,VWS V14.00,2013-03-30 09:44:00,
2013-03-30 05:52:00,24.5,20.9,30.32,WNW,298,0.0,0.0,86,0.00,,---,0.00,VWS V14.00,2013-03-30 09:52:00,
2013-03-30 06:00:00,24.3,20.7,30.32,WNW,298,0.0,0.0,86,0.00,,---,0.00,VWS V14.00,2013-03-30 10:00:00,
2013-03-30 06:08:00,24.1,20.5,30.32,WNW,298,0.0,0.0,86,0.00,,---,0.00,VWS V14.00,2013-03-30 10:08:00,
2013-03-30 06:24:00,23.6,20.0,30.32,WNW,298,0.0,0.0,86,0.00,,---,0.00,VWS V14.00,2013-03-30 10:24:00,
2013-03-30 06:30:00,23.4,20.1,30.32,WNW,298,0.0,0.0,87,0.00,,---,0.00,VWS V14.00,2013-03-30 10:30:00,
2013-03-30 06:40:00,23.5,20.2,30.33,WNW,298,0.0,0.0,87,0.00,,---,0.00,VWS V14.00,2013-03-30 10:40:00,
2013-03-30 06:48:00,23.5,20.2,30.33,WNW,298,0.0,0.0,87,0.00,,---,0.00,VWS V14.00,2013-03-30 10:48:00,
2013-03-30 06:56:00,23.4,20.1,30.33,WNW,298,0.0,0.0,87,0.00,,---,0.00,VWS V14.00,2013-03-30 10:56:00,
2013-03-30 07:04:00,23.5,20.5,30.33,WNW,298,0.0,0.0,88,0.00,,---,0.00,VWS V14.00,2013-03-30 11:04:00,
2013-03-30 07:12:00,23.5,20.5,30.34,WNW,298,0.0,0.0,88,0.00,,---,0.00,VWS V14.00,2013-03-30 11:12:00,
2013-03-30 07:20:00,23.8,20.8,30.34,WNW,298,0.0,0.0,88,0.00,,---,0.00,VWS V14.00,2013-03-30 11:20:00,
2013-03-30 07:28:00,23.9,20.9,30.34,WNW,298,0.0,0.0,88,0.00,,---,0.00,VWS V14.00,2013-03-30 11:28:00,
2013-03-30 07:36:00,24.1,21.1,30.34,WNW,298,0.0,0.0,88,0.00,,---,0.00,VWS V14.00,2013-03-30 11:36:00,
2013-03-30 07:44:00,24.6,21.8,30.34,WNW,298,0.0,1.0,89,0.00,,---,0.00,VWS V14.00,2013-03-30 11:44:00,
2013-03-30 07:52:00,25.2,22.4,30.34,WNW,298,0.0,1.0,89,0.00,,---,0.00,VWS V14.00,2013-03-30 11:52:00,
2013-03-30 08:00:00,25.8,22.7,30.34,WNW,298,0.0,1.0,88,0.00,,---,0.00,VWS V14.00,2013-03-30 12:00:00,
2013-03-30 08:08:00,26.6,23.5,30.35,WNW,298,0.0,1.0,88,0.00,,---,0.00,VWS V14.00,2013-03-30 12:08:00,
2013-03-30 08:16:00,27.3,24.0,30.35,WNW,298,0.0,1.0,87,0.00,,---,0.00,VWS V14.00,2013-03-30 12:16:00,
2013-03-30 08:24:00,28.0,24.1,30.35,WNW,298,0.0,1.0,85,0.00,,---,0.00,VWS V14.00,2013-03-30 12:24:00,
2013-03-30 08:30:00,28.7,24.2,30.35,WNW,298,0.0,1.0,83,0.00,,---,0.00,VWS V14.00,2013-03-30 12:30:00,
2013-03-30 08:40:00,29.6,24.2,30.35,WNW,297,0.0,2.0,80,0.00,,---,0.00,VWS V14.00,2013-03-30 12:40:00,
2013-03-30 08:48:00,30.1,24.1,30.35,WNW,297,0.0,2.0,78,0.00,,---,0.00,VWS V14.00,2013-03-30 12:48:00,
2013-03-30 09:00:00,31.4,24.7,30.35,WNW,297,0.0,2.0,76,0.00,,---,0.00,VWS V14.00,2013-03-30 13:00:00,
2013-03-30 09:12:00,32.7,25.0,30.35,SW,223,0.0,3.0,73,0.00,,---,0.00,VWS V14.00,2013-03-30 13:12:00,
2013-03-30 09:20:00,33.3,24.9,30.35,SW,223,0.0,3.0,71,0.00,,---,0.00,VWS V14.00,2013-03-30 13:20:00,
2013-03-30 09:28:00,33.9,25.5,30.35,SW,223,0.0,3.0,71,0.00,,---,0.00,VWS V14.00,2013-03-30 13:28:00,
2013-03-30 09:36:00,34.7,26.3,30.35,SW,223,0.0,2.0,71,0.00,,---,0.00,VWS V14.00,2013-03-30 13:36:00,
2013-03-30 09:44:00,35.8,27.0,30.35,SW,223,0.0,2.0,70,0.00,,---,0.00,VWS V14.00,2013-03-30 13:44:00,
2013-03-30 09:52:00,36.8,27.2,30.35,SW,223,0.0,2.0,68,0.00,,---,0.00,VWS V14.00,2013-03-30 13:52:00,
2013-03-30 10:00:00,38.0,27.7,30.35,SW,223,1.0,2.0,66,0.00,,---,0.00,VWS V14.00,2013-03-30 14:00:00,
2013-03-30 10:09:00,39.3,27.4,30.35,NNW,340,2.0,3.0,62,0.00,,---,0.00,VWS V14.00,2013-03-30 14:09:00,
2013-03-30 10:17:00,40.0,26.0,30.35,WNW,286,2.0,5.0,57,0.00,,---,0.00,VWS V14.00,2013-03-30 14:17:00,
2013-03-30 10:25:00,40.6,26.1,30.35,NW,306,5.0,7.0,56,0.00,,---,0.00,VWS V14.00,2013-03-30 14:25:00,
2013-03-30 10:30:00,40.7,26.2,30.35,NW,304,0.0,8.0,56,0.00,,---,0.00,VWS V14.00,2013-03-30 14:30:00,
2013-03-30 10:41:00,40.8,25.9,30.35,WNW,300,5.0,8.0,55,0.00,,---,0.00,VWS V14.00,2013-03-30 14:41:00,
2013-03-30 10:49:00,41.1,25.7,30.35,NW,322,1.0,8.0,54,0.00,,---,0.00,VWS V14.00,2013-03-30 14:49:00,
2013-03-30 10:57:00,41.8,25.9,30.34,West,281,0.0,8.0,53,0.00,,---,0.00,VWS V14.00,2013-03-30 14:57:00,
2013-03-30 11:05:00,42.7,25.4,30.34,West,281,1.0,3.0,50,0.00,,---,0.00,VWS V14.00,2013-03-30 15:05:00,
2013-03-30 11:13:00,43.1,25.3,30.34,SW,229,1.0,5.0,49,0.00,,---,0.00,VWS V14.00,2013-03-30 15:13:00,
2013-03-30 11:29:00,43.7,26.8,30.33,SW,225,0.0,7.0,51,0.00,,---,0.00,VWS V14.00,2013-03-30 15:29:00,
2013-03-30 11:37:00,44.3,24.3,30.33,SSW,211,1.0,6.0,45,0.00,,---,0.00,VWS V14.00,2013-03-30 15:37:00,
2013-03-30 11:45:00,44.0,24.6,30.33,SSW,209,5.0,8.0,46,0.00,,---,0.00,VWS V14.00,2013-03-30 15:45:00,
2013-03-30 11:53:00,44.4,24.4,30.32,SW,227,0.0,11.0,45,0.00,,---,0.00,VWS V14.00,2013-03-30 15:53:00,
2013-03-30 12:00:00,44.6,25.6,30.32,SW,224,2.0,11.0,47,0.00,,---,0.00,VWS V14.00,2013-03-30 16:00:00,
2013-03-30 12:09:00,45.2,23.5,30.32,NW,308,0.0,6.0,42,0.00,,---,0.00,VWS V14.00,2013-03-30 16:09:00,
2013-03-30 12:17:00,45.0,24.4,30.32,WNW,283,4.0,8.0,44,0.00,,---,0.00,VWS V14.00,2013-03-30 16:17:00,
2013-03-30 12:25:00,45.6,25.5,30.32,SSW,204,3.0,8.0,45,0.00,,---,0.00,VWS V14.00,2013-03-30 16:25:00,
2013-03-30 12:30:00,45.9,24.1,30.32,NW,317,4.0,8.0,42,0.00,,---,0.00,VWS V14.00,2013-03-30 16:30:00,
2013-03-30 12:41:00,46.2,26.0,30.31,West,276,2.0,8.0,45,0.00,,---,0.00,VWS V14.00,2013-03-30 16:41:00,
2013-03-30 12:49:00,45.6,23.3,30.31,NNE,18,4.0,9.0,41,0.00,,---,0.00,VWS V14.00,2013-03-30 16:49:00,
2013-03-30 12:57:00,45.9,24.7,30.31,West,273,0.0,9.0,43,0.00,,---,0.00,VWS V14.00,2013-03-30 16:57:00,
2013-03-30 13:05:00,46.1,25.4,30.30,NW,309,1.0,7.0,44,0.00,,---,0.00,VWS V14.00,2013-03-30 17:05:00,
2013-03-30 13:13:00,46.5,24.1,30.30,NE,38,3.0,8.0,41,0.00,,---,0.00,VWS V14.00,2013-03-30 17:13:00,
2013-03-30 13:21:00,46.2,23.2,30.30,NW,311,1.0,8.0,40,0.00,,---,0.00,VWS V14.00,2013-03-30 17:21:00,
2013-03-30 13:29:00,46.4,24.6,30.30,WNW,288,1.0,8.0,42,0.00,,---,0.00,VWS V14.00,2013-03-30 17:29:00,
2013-03-30 13:37:00,47.3,24.8,30.29,North,355,1.0,6.0,41,0.00,,---,0.00,VWS V14.00,2013-03-30 17:37:00,
2013-03-30 13:45:00,47.8,25.3,30.29,WNW,293,4.0,6.0,41,0.00,,---,0.00,VWS V14.00,2013-03-30 17:45:00,
2013-03-30 13:53:00,47.0,23.3,30.29,WNW,290,5.0,8.0,39,0.00,,---,0.00,VWS V14.00,2013-03-30 17:53:00,
2013-03-30 14:00:00,47.1,24.6,30.29,WNW,299,1.0,8.0,41,0.00,,---,0.00,VWS V14.00,2013-03-30 18:00:00,
2013-03-30 14:10:00,48.5,24.1,30.29,NNW,347,3.0,5.0,38,0.00,,---,0.00,VWS V14.00,2013-03-30 18:10:00,
2013-03-30 14:18:00,48.3,23.3,30.28,SW,217,5.0,7.0,37,0.00,,---,0.00,VWS V14.00,2013-03-30 18:18:00,
2013-03-30 14:26:00,47.8,25.3,30.28,West,273,4.0,13.0,41,0.00,,---,0.00,VWS V14.00,2013-03-30 18:26:00,
2013-03-30 14:34:00,48.2,23.2,30.28,WNW,294,6.0,6.0,37,0.00,,---,0.00,VWS V14.00,2013-03-30 18:34:00,
2013-03-30 14:42:00,48.3,23.3,30.28,West,278,7.0,10.0,37,0.00,,---,0.00,VWS V14.00,2013-03-30 18:42:00,
2013-03-30 14:50:00,48.3,23.9,30.27,SW,217,0.0,10.0,38,0.00,,---,0.00,VWS V14.00,2013-03-30 18:50:00,
2013-03-30 14:58:00,49.5,25.6,30.27,NW,325,3.0,10.0,39,0.00,,---,0.00,VWS V14.00,2013-03-30 18:58:00,
2013-03-30 15:06:00,49.1,23.3,30.26,NW,309,4.0,7.0,36,0.00,,---,0.00,VWS V14.00,2013-03-30 19:06:00,
2013-03-30 15:14:00,48.2,23.2,30.26,NW,322,2.0,7.0,37,0.00,,---,0.00,VWS V14.00,2013-03-30 19:14:00,
2013-03-30 15:22:00,48.8,23.7,30.26,SSW,210,0.0,7.0,37,0.00,,---,0.00,VWS V14.00,2013-03-30 19:22:00,
2013-03-30 15:30:00,49.7,23.9,30.26,WNW,290,2.0,7.0,36,0.00,,---,0.00,VWS V14.00,2013-03-30 19:30:00,
2013-03-30 15:38:00,49.4,23.6,30.26,SW,226,4.0,12.0,36,0.00,,---,0.00,VWS V14.00,2013-03-30 19:38:00,
2013-03-30 15:46:00,49.4,24.2,30.26,SW,223,1.0,12.0,37,0.00,,---,0.00,VWS V14.00,2013-03-30 19:46:00,
2013-03-30 15:54:00,49.1,22.0,30.25,SSW,213,3.0,12.0,34,0.00,,---,0.00,VWS V14.00,2013-03-30 19:54:00,
2013-03-30 16:00:00,49.0,23.2,30.25,West,281,4.0,12.0,36,0.00,,---,0.00,VWS V14.00,2013-03-30 20:00:00,
2013-03-30 16:10:00,49.2,22.7,30.25,WSW,238,6.0,8.0,35,0.00,,---,0.00,VWS V14.00,2013-03-30 20:10:00,
2013-03-30 16:18:00,50.0,22.0,30.25,WSW,244,0.0,8.0,33,0.00,,---,0.00,VWS V14.00,2013-03-30 20:18:00,
2013-03-30 16:26:00,49.9,23.4,30.24,WNW,297,6.0,8.0,35,0.00,,---,0.00,VWS V14.00,2013-03-30 20:26:00,
2013-03-30 16:34:00,49.7,23.2,30.24,SW,225,0.0,8.0,35,0.00,,---,0.00,VWS V14.00,2013-03-30 20:34:00,
2013-03-30 16:42:00,49.7,22.5,30.24,SW,220,1.0,8.0,34,0.00,,---,0.00,VWS V14.00,2013-03-30 20:42:00,
2013-03-30 16:50:00,49.9,22.7,30.23,NW,306,5.0,8.0,34,0.00,,---,0.00,VWS V14.00,2013-03-30 20:50:00,
2013-03-30 16:58:00,49.7,23.9,30.23,SW,231,5.0,10.0,36,0.00,,---,0.00,VWS V14.00,2013-03-30 20:58:00,
2013-03-30 17:06:00,49.7,23.9,30.23,West,281,3.0,9.0,36,0.00,,---,0.00,VWS V14.00,2013-03-30 21:06:00,
2013-03-30 17:14:00,49.7,22.5,30.23,WNW,294,5.0,9.0,34,0.00,,---,0.00,VWS V14.00,2013-03-30 21:14:00,
2013-03-30 17:22:00,49.3,22.8,30.23,WNW,299,1.0,9.0,35,0.00,,---,0.00,VWS V14.00,2013-03-30 21:22:00,
2013-03-30 17:30:00,49.4,22.9,30.23,SW,234,1.0,9.0,35,0.00,,---,0.00,VWS V14.00,2013-03-30 21:30:00,
2013-03-30 17:38:00,49.3,22.8,30.23,West,281,4.0,8.0,35,0.00,,---,0.00,VWS V14.00,2013-03-30 21:38:00,
2013-03-30 17:54:00,49.9,24.0,30.22,West,273,6.0,9.0,36,0.00,,---,0.00,VWS V14.00,2013-03-30 21:54:00,
2013-03-30 18:00:00,49.6,23.1,30.22,West,271,2.0,9.0,35,0.00,,---,0.00,VWS V14.00,2013-03-30 22:00:00,
2013-03-30 18:10:00,49.2,24.7,30.21,NW,309,1.0,5.0,38,0.00,,---,0.00,VWS V14.00,2013-03-30 22:10:00,
2013-03-30 18:18:00,49.0,24.5,30.21,West,279,0.0,6.0,38,0.00,,---,0.00,VWS V14.00,2013-03-30 22:18:00,
2013-03-30 18:27:00,49.0,23.9,30.21,West,267,3.0,6.0,37,0.00,,---,0.00,VWS V14.00,2013-03-30 22:27:00,
2013-03-30 18:35:00,48.8,24.3,30.20,SW,229,0.0,4.0,38,0.00,,---,0.00,VWS V14.00,2013-03-30 22:35:00,
2013-03-30 18:43:00,48.4,23.3,30.20,West,268,1.0,6.0,37,0.00,,---,0.00,VWS V14.00,2013-03-30 22:43:00,
2013-03-30 18:51:00,48.1,23.1,30.20,West,268,1.0,6.0,37,0.00,,---,0.00,VWS V14.00,2013-03-30 22:51:00,
2013-03-30 18:59:00,47.9,24.8,30.20,West,266,0.0,6.0,40,0.00,,---,0.00,VWS V14.00,2013-03-30 22:59:00,
2013-03-30 19:07:00,47.6,23.3,30.20,West,266,2.0,3.0,38,0.00,,---,0.00,VWS V14.00,2013-03-30 23:07:00,
2013-03-30 19:15:00,47.2,25.9,30.20,West,266,0.0,4.0,43,0.00,,---,0.00,VWS V14.00,2013-03-30 23:15:00,
2013-03-30 19:23:00,46.9,25.6,30.20,West,266,0.0,4.0,43,0.00,,---,0.00,VWS V14.00,2013-03-30 23:23:00,
2013-03-30 19:30:00,46.5,26.3,30.20,West,266,0.0,4.0,45,0.00,,---,0.00,VWS V14.00,2013-03-30 23:30:00,
2013-03-30 19:39:00,45.9,25.2,30.20,West,266,0.0,0.0,44,0.00,,---,0.00,VWS V14.00,2013-03-30 23:39:00,
2013-03-30 19:47:00,45.4,25.3,30.20,West,266,0.0,0.0,45,0.00,,---,0.00,VWS V14.00,2013-03-30 23:47:00,
2013-03-30 19:55:00,44.7,25.7,30.20,West,266,0.0,0.0,47,0.00,,---,0.00,VWS V14.00,2013-03-30 23:55:00,
2013-03-30 20:00:00,44.3,25.4,30.20,West,266,0.0,0.0,47,0.00,,---,0.00,VWS V14.00,2013-03-31 00:00:00,
2013-03-30 20:19:00,42.9,24.6,30.20,West,266,0.0,0.0,48,0.00,,---,0.00,VWS V14.00,2013-03-31 00:19:00,
2013-03-30 20:27:00,42.4,24.6,30.19,West,266,0.0,0.0,49,0.00,,---,0.00,VWS V14.00,2013-03-31 00:27:00,
2013-03-30 20:35:00,41.9,24.1,30.19,West,266,0.0,0.0,49,0.00,,---,0.00,VWS V14.00,2013-03-31 00:35:00,
2013-03-30 20:43:00,41.6,24.8,30.19,West,266,0.0,1.0,51,0.00,,---,0.00,VWS V14.00,2013-03-31 00:43:00,
2013-03-30 20:59:00,40.8,24.1,30.19,West,266,0.0,2.0,51,0.00,,---,0.00,VWS V14.00,2013-03-31 00:59:00,
2013-03-30 21:07:00,40.4,24.6,30.19,West,266,0.0,0.0,53,0.00,,---,0.00,VWS V14.00,2013-03-31 01:07:00,
2013-03-30 21:15:00,40.0,24.7,30.19,West,266,0.0,1.0,54,0.00,,---,0.00,VWS V14.00,2013-03-31 01:15:00,
2013-03-30 21:23:00,39.7,24.9,30.19,West,266,0.0,1.0,55,0.00,,---,0.00,VWS V14.00,2013-03-31 01:23:00,
2013-03-30 21:30:00,39.3,24.5,30.19,West,266,0.0,1.0,55,0.00,,---,0.00,VWS V14.00,2013-03-31 01:30:00,
2013-03-30 21:39:00,38.9,25.0,30.18,West,266,0.0,2.0,57,0.00,,---,0.00,VWS V14.00,2013-03-31 01:39:00,
2013-03-30 21:47:00,38.6,24.3,30.18,West,266,1.0,3.0,56,0.00,,---,0.00,VWS V14.00,2013-03-31 01:47:00,
2013-03-30 21:55:00,38.9,24.6,30.18,West,266,0.0,3.0,56,0.00,,---,0.00,VWS V14.00,2013-03-31 01:55:00,
2013-03-30 22:03:00,38.6,24.3,30.18,West,266,2.0,3.0,56,0.00,,---,0.00,VWS V14.00,2013-03-31 02:03:00,
2013-03-30 22:11:00,38.5,24.6,30.18,South,172,0.0,4.0,57,0.00,,---,0.00,VWS V14.00,2013-03-31 02:11:00,
2013-03-30 22:19:00,38.2,24.7,30.18,South,172,0.0,4.0,58,0.00,,---,0.00,VWS V14.00,2013-03-31 02:19:00,
2013-03-30 22:27:00,37.9,24.0,30.17,South,172,1.0,4.0,57,0.00,,---,0.00,VWS V14.00,2013-03-31 02:27:00,
2013-03-30 22:35:00,37.6,24.6,30.18,South,172,0.0,3.0,59,0.00,,---,0.00,VWS V14.00,2013-03-31 02:35:00,
2013-03-30 22:43:00,37.3,24.3,30.17,South,172,0.0,3.0,59,0.00,,---,0.00,VWS V14.00,2013-03-31 02:43:00,
2013-03-30 22:51:00,37.0,24.4,30.17,South,172,0.0,3.0,60,0.00,,---,0.00,VWS V14.00,2013-03-31 02:51:00,
2013-03-30 22:59:00,36.5,24.3,30.17,South,172,0.0,3.0,61,0.00,,---,0.00,VWS V14.00,2013-03-31 02:59:00,
2013-03-30 23:07:00,36.0,24.3,30.17,South,173,0.0,2.0,62,0.00,,---,0.00,VWS V14.00,2013-03-31 03:07:00,
2013-03-30 23:16:00,35.8,24.5,30.17,South,172,0.0,2.0,63,0.00,,---,0.00,VWS V14.00,2013-03-31 03:16:00,
2013-03-30 23:24:00,35.7,24.7,30.17,South,172,0.0,2.0,64,0.00,,---,0.00,VWS V14.00,2013-03-31 03:24:00,
2013-03-30 23:30:00,35.4,24.8,30.17,South,172,0.0,2.0,65,0.00,,---,0.00,VWS V14.00,2013-03-31 03:30:00,
2013-03-30 23:40:00,34.9,25.1,30.17,South,172,0.0,1.0,67,0.00,,---,0.00,VWS V14.00,2013-03-31 03:40:00,
2013-03-30 23:48:00,34.5,25.0,30.17,South,172,0.0,1.0,68,0.00,,---,0.00,VWS V14.00,2013-03-31 03:48:00,
2013-03-30 23:56:00,34.7,24.5,30.16,SSW,205,1.0,5.0,66,0.00,,---,0.00,VWS V14.00,2013-03-31 03:56:00,